Terminal Aerodrome Forecast
Issued by NWS

Home | Current Version | Previous Version | Text Only | Print | Product List | Glossary Off
Versions: 1 2 3 4 5 6 7 8 9 10 11 12 13 14 15 16 17

727
FTUS43 KGRB 181132
TAFMTW
TAF
KMTW 181132Z 1812/1912 36007KT P6SM BKN025
     FM181600 02012KT P6SM OVC022
     FM182200 02014G20KT 5SM -SN OVC020
      TEMPO 1822/1902 2SM -SN OVC015
     FM190300 01014G21KT P6SM BKN040
     FM190600 01013G20KT P6SM SCT060=

USA.gov is the U.S. government's official web portal to all federal, state and local government web resources and services.